Time;durP1;ratioP1;P1;durP2;ratioP2;P2;SDS_P1;SDS_P2;PMS_P1;PMS_P2;Temp;Humidity;BMP_temperature;BMP_pressure;BME280_temperature;BME280_humidity;BME280_pressure;Samples;Min_cycle;Max_cycle;Signal;HPM_P1;HPM_P2
2022/10/14 00:01:10;;;;;;;;;;;;;;;11.22;100.00;95349.16;5083533;28;19960;-65
2022/10/14 00:03:38;;;;;;;;;;;;;;;11.19;100.00;95344.38;5092547;28;19982;-67
2022/10/14 00:06:06;;;;;;;;;;;;;;;11.16;100.00;95350.03;5085415;28;20432;-66
2022/10/14 00:08:33;;;;;;;;;;;;;;;11.26;100.00;95347.69;5095676;28;19932;-65
2022/10/14 00:11:05;;;;;;;;;;;;;;;11.17;100.00;95341.19;5082893;28;19924;-64
2022/10/14 00:13:32;;;;;;;;;;;;;;;11.17;100.00;95346.41;5082569;28;20414;-65
2022/10/14 00:16:00;;;;;;;;;;;;;;;11.23;100.00;95340.28;5088411;28;19927;-65
2022/10/14 00:18:27;;;;;;;;;;;;;;;11.31;100.00;95335.78;5084029;28;19928;-64
2022/10/14 00:20:58;;;;;;;;;;;;;;;11.28;100.00;95332.59;5089307;28;19971;-64
2022/10/14 00:23:25;;;;;;;;;;;;;;;11.18;100.00;95327.16;5088474;28;19959;-64
2022/10/14 00:25:52;;;;;;;;;;;;;;;11.22;100.00;95328.28;5086058;28;20543;-64
2022/10/14 00:28:20;;;;;;;;;;;;;;;11.21;100.00;95329.28;5097397;28;19931;-64
2022/10/14 00:30:57;;;;;;;;;;;;;;;11.26;100.00;95326.81;5081252;28;19934;-64
2022/10/14 00:33:24;;;;;;;;;;;;;;;11.24;100.00;95331.47;5089862;28;19928;-64
2022/10/14 00:35:53;;;;;;;;;;;;;;;11.25;100.00;95327.84;5074134;28;20570;-64
2022/10/14 00:38:25;;;;;;;;;;;;;;;11.27;100.00;95331.03;5071333;28;20341;-64
2022/10/14 00:40:52;;;;;;;;;;;;;;;11.19;100.00;95323.50;5086950;28;19971;-64
2022/10/14 00:43:21;;;;;;;;;;;;;;;10.97;100.00;95319.81;5094870;28;19950;-65
2022/10/14 00:45:48;;;;;;;;;;;;;;;11.00;100.00;95329.78;5072028;28;19923;-64
2022/10/14 00:48:15;;;;;;;;;;;;;;;11.04;100.00;95331.75;5096103;28;19928;-65
2022/10/14 00:50:45;;;;;;;;;;;;;;;11.05;100.00;95333.31;5089450;28;19970;-64
2022/10/14 00:53:12;;;;;;;;;;;;;;;11.00;100.00;95330.59;5090765;28;19989;-65
2022/10/14 00:55:41;;;;;;;;;;;;;;;10.97;100.00;95325.03;5091956;28;20082;-65
2022/10/14 00:58:10;;;;;;;;;;;;;;;10.98;100.00;95331.81;5093284;28;19955;-65
2022/10/14 01:00:38;;;;;;;;;;;;;;;10.94;100.00;95326.25;5093322;28;20428;-66
2022/10/14 01:03:08;;;;;;;;;;;;;;;10.97;100.00;95323.22;5093020;28;19981;-65
2022/10/14 01:05:39;;;;;;;;;;;;;;;10.99;100.00;95323.78;5092460;28;19927;-65
2022/10/14 01:08:09;;;;;;;;;;;;;;;11.00;100.00;95314.16;5073796;28;19928;-65
2022/10/14 01:10:52;;;;;;;;;;;;;;;11.01;100.00;95310.53;5089363;28;20575;-65
2022/10/14 01:13:28;;;;;;;;;;;;;;;11.10;100.00;95309.22;5091148;28;19924;-65
2022/10/14 01:15:56;;;;;;;;;;;;;;;11.15;100.00;95308.56;5075186;28;19930;-65
2022/10/14 01:18:32;;;;;;;;;;;;;;;10.98;100.00;95305.75;5072684;28;20465;-65
2022/10/14 01:20:58;;;;;;;;;;;;;;;10.93;100.00;95300.41;5096192;28;19929;-65
2022/10/14 01:23:44;;;;;;;;;;;;;;;10.88;100.00;95296.66;5069966;28;20413;-65
2022/10/14 01:26:19;;;;;;;;;;;;;;;10.80;100.00;95294.34;5090595;28;20402;-65
2022/10/14 01:28:46;;;;;;;;;;;;;;;10.85;100.00;95289.28;5092369;28;19932;-65
2022/10/14 01:31:18;;;;;;;;;;;;;;;10.89;100.00;95282.63;5091533;28;19928;-65
2022/10/14 01:33:49;;;;;;;;;;;;;;;10.83;100.00;95280.91;5059311;28;20019;-65
2022/10/14 01:36:22;;;;;;;;;;;;;;;10.87;100.00;95283.84;5070593;28;19928;-65
2022/10/14 01:39:01;;;;;;;;;;;;;;;10.81;100.00;95280.31;5074225;28;19984;-65
2022/10/14 01:41:30;;;;;;;;;;;;;;;10.89;100.00;95277.41;5072990;28;20026;-65
2022/10/14 01:44:01;;;;;;;;;;;;;;;10.85;100.00;95271.03;5076823;28;20016;-65
2022/10/14 01:46:28;;;;;;;;;;;;;;;10.80;100.00;95278.72;5091844;28;19928;-65
2022/10/14 01:49:01;;;;;;;;;;;;;;;10.82;100.00;95276.72;5089242;28;19924;-65
2022/10/14 01:51:30;;;;;;;;;;;;;;;10.83;100.00;95277.50;5074612;28;20495;-66
2022/10/14 01:54:01;;;;;;;;;;;;;;;10.82;100.00;95274.13;5088154;28;20030;-66
2022/10/14 01:56:29;;;;;;;;;;;;;;;10.86;100.00;95277.84;5090992;28;20477;-65
2022/10/14 01:58:58;;;;;;;;;;;;;;;10.83;100.00;95267.88;5073889;28;19935;-65
2022/10/14 02:01:25;;;;;;;;;;;;;;;10.81;100.00;95269.91;5069650;28;19982;-65
2022/10/14 02:03:51;;;;;;;;;;;;;;;10.82;100.00;95274.13;5087213;28;19972;-65
2022/10/14 02:06:28;;;;;;;;;;;;;;;10.80;100.00;95272.72;5089311;28;19924;-65
2022/10/14 02:09:07;;;;;;;;;;;;;;;10.86;100.00;95267.44;5071058;28;19985;-65
2022/10/14 02:11:52;;;;;;;;;;;;;;;10.93;100.00;95266.53;5088531;28;19931;-65
2022/10/14 02:14:31;;;;;;;;;;;;;;;10.82;100.00;95263.69;5084369;28;19935;-65
2022/10/14 02:17:20;;;;;;;;;;;;;;;10.88;100.00;95265.41;5069617;28;19932;-67
2022/10/14 02:20:02;;;;;;;;;;;;;;;10.94;100.00;95268.13;5070189;28;19931;-65
2022/10/14 02:22:34;;;;;;;;;;;;;;;10.85;100.00;95260.63;5089504;28;19954;-66
2022/10/14 02:25:06;;;;;;;;;;;;;;;10.83;100.00;95262.66;5071438;28;19924;-64
2022/10/14 02:27:34;;;;;;;;;;;;;;;10.84;100.00;95264.25;5084236;28;20393;-64
2022/10/14 02:30:03;;;;;;;;;;;;;;;10.83;100.00;95257.44;5065688;28;19936;-63
2022/10/14 02:32:31;;;;;;;;;;;;;;;10.85;100.00;95265.84;5089628;28;20448;-66
2022/10/14 02:34:58;;;;;;;;;;;;;;;10.82;100.00;95263.69;5070062;28;19950;-66
2022/10/14 02:37:27;;;;;;;;;;;;;;;10.83;100.00;95257.44;5071815;28;19924;-64
2022/10/14 02:39:58;;;;;;;;;;;;;;;10.86;100.00;95264.81;5067304;28;19931;-64
2022/10/14 02:42:26;;;;;;;;;;;;;;;10.89;100.00;95261.78;5084179;28;19931;-65
2022/10/14 02:44:55;;;;;;;;;;;;;;;10.84;100.00;95253.84;5074339;28;20014;-64
2022/10/14 02:47:23;;;;;;;;;;;;;;;10.79;100.00;95258.91;5065728;28;19935;-65
2022/10/14 02:49:50;;;;;;;;;;;;;;;10.80;100.00;95252.66;5084053;28;19928;-64
2022/10/14 02:52:17;;;;;;;;;;;;;;;10.82;100.00;95261.09;5065538;28;19928;-64
2022/10/14 02:54:44;;;;;;;;;;;;;;;10.74;100.00;95253.56;5068579;28;19939;-65
2022/10/14 02:57:11;;;;;;;;;;;;;;;10.83;100.00;95256.66;5071694;28;19924;-64
2022/10/14 02:59:38;;;;;;;;;;;;;;;10.75;100.00;95249.97;5096829;28;20426;-64
2022/10/14 03:02:06;;;;;;;;;;;;;;;10.71;100.00;95243.56;5090071;28;19928;-64
2022/10/14 03:04:35;;;;;;;;;;;;;;;10.74;100.00;95243.16;5069803;28;20015;-64
2022/10/14 03:07:01;;;;;;;;;;;;;;;10.80;100.00;95247.44;5089141;28;20122;-63
2022/10/14 03:09:31;;;;;;;;;;;;;;;10.69;100.00;95253.44;5075566;28;20062;-64
2022/10/14 03:11:58;;;;;;;;;;;;;;;10.65;100.00;95245.25;5067642;28;19928;-64
2022/10/14 03:14:25;;;;;;;;;;;;;;;10.66;100.00;95240.84;5074922;28;20396;-64
2022/10/14 03:16:52;;;;;;;;;;;;;;;10.69;100.00;95240.41;5068964;28;20043;-65
2022/10/14 03:19:22;;;;;;;;;;;;;;;10.70;100.00;95239.41;5070171;28;20667;-64
2022/10/14 03:21:52;;;;;;;;;;;;;;;10.70;100.00;95242.00;5077911;28;19924;-64
2022/10/14 03:24:19;;;;;;;;;;;;;;;10.56;100.00;95241.38;5073068;28;19935;-64
2022/10/14 03:26:55;;;;;;;;;;;;;;;10.62;100.00;95237.09;5085998;28;19967;-64
2022/10/14 03:29:24;;;;;;;;;;;;;;;10.63;100.00;95242.09;5073108;28;20292;-65
2022/10/14 03:32:09;;;;;;;;;;;;;;;10.61;100.00;95232.91;5070724;28;19927;-64
2022/10/14 03:34:54;;;;;;;;;;;;;;;10.47;100.00;95232.28;5091648;28;20711;-64
2022/10/14 03:37:23;;;;;;;;;;;;;;;10.54;100.00;95232.19;5067831;28;19928;-65
2022/10/14 03:39:53;;;;;;;;;;;;;;;10.55;100.00;95234.56;5072740;28;19978;-65
2022/10/14 03:42:20;;;;;;;;;;;;;;;10.57;100.00;95227.34;5071348;28;20020;-64
2022/10/14 03:44:48;;;;;;;;;;;;;;;10.47;100.00;95230.47;5085630;28;20005;-65
2022/10/14 03:47:20;;;;;;;;;;;;;;;10.52;100.00;95241.03;5069119;28;19951;-64
2022/10/14 03:49:47;;;;;;;;;;;;;;;10.50;100.00;95227.44;5086155;28;20378;-64
2022/10/14 03:52:25;;;;;;;;;;;;;;;10.44;100.00;95228.31;5071880;28;19924;-64
2022/10/14 03:55:05;;;;;;;;;;;;;;;10.49;100.00;95236.25;5069237;28;20368;-64
2022/10/14 03:57:33;;;;;;;;;;;;;;;10.42;100.00;95232.13;5070906;28;19939;-65
2022/10/14 04:00:00;;;;;;;;;;;;;;;10.40;100.00;95229.75;5071148;28;20483;-65
2022/10/14 04:02:39;;;;;;;;;;;;;;;10.38;100.00;95229.19;5100311;28;19975;-65
2022/10/14 04:05:11;;;;;;;;;;;;;;;10.43;100.00;95224.13;5076566;28;19924;-65
2022/10/14 04:07:39;;;;;;;;;;;;;;;10.46;100.00;95226.28;5082474;28;19928;-65
2022/10/14 04:10:07;;;;;;;;;;;;;;;10.41;100.00;95223.53;5078082;28;20327;-64
2022/10/14 04:12:35;;;;;;;;;;;;;;;10.39;100.00;95215.16;5075595;28;20408;-65
2022/10/14 04:15:07;;;;;;;;;;;;;;;10.36;100.00;95210.38;5077056;28;19939;-64
2022/10/14 04:17:49;;;;;;;;;;;;;;;10.38;100.00;95208.34;5078225;28;20390;-68
2022/10/14 04:20:16;;;;;;;;;;;;;;;10.39;100.00;95209.13;5077258;28;19923;-65
2022/10/14 04:22:45;;;;;;;;;;;;;;;10.32;100.00;95219.66;5074358;28;19966;-65
2022/10/14 04:25:14;;;;;;;;;;;;;;;10.25;100.00;95216.31;5078899;28;19986;-65
2022/10/14 04:27:41;;;;;;;;;;;;;;;10.37;100.00;95205.97;5072338;28;19989;-66
2022/10/14 04:30:08;;;;;;;;;;;;;;;10.44;100.00;95202.28;5078333;28;20006;-64
2022/10/14 04:32:47;;;;;;;;;;;;;;;10.47;100.00;95201.81;5077609;28;20377;-65
2022/10/14 04:35:15;;;;;;;;;;;;;;;10.46;100.00;95200.25;5079800;28;19976;-64
2022/10/14 04:37:45;;;;;;;;;;;;;;;10.30;100.00;95200.81;5080332;28;19924;-63
2022/10/14 04:40:23;;;;;;;;;;;;;;;10.28;100.00;95200.22;5097985;28;20026;-65
2022/10/14 04:42:52;;;;;;;;;;;;;;;10.23;100.00;95205.31;5075007;28;20383;-64
2022/10/14 04:45:22;;;;;;;;;;;;;;;10.06;100.00;95192.09;5073536;28;20422;-65
2022/10/14 04:47:55;;;;;;;;;;;;;;;10.21;100.00;95191.69;5072818;28;19997;-65
2022/10/14 04:50:23;;;;;;;;;;;;;;;10.26;100.00;95194.44;5076832;28;19928;-65
2022/10/14 04:53:08;;;;;;;;;;;;;;;10.23;100.00;95190.50;5090373;28;19939;-65
2022/10/14 04:55:52;;;;;;;;;;;;;;;10.40;100.00;95201.09;5072930;28;19928;-65
2022/10/14 04:58:19;;;;;;;;;;;;;;;10.42;100.00;95198.28;5090746;28;20019;-66
2022/10/14 05:00:48;;;;;;;;;;;;;;;10.34;100.00;95199.41;5076609;28;19935;-69
2022/10/14 05:03:28;;;;;;;;;;;;;;;10.32;100.00;95204.81;5071333;28;20405;-66
2022/10/14 05:05:57;;;;;;;;;;;;;;;10.34;100.00;95191.59;5080396;28;19924;-67
2022/10/14 05:08:24;;;;;;;;;;;;;;;10.38;100.00;95197.94;5070070;28;19982;-65
2022/10/14 05:10:54;;;;;;;;;;;;;;;10.40;100.00;95201.09;5070420;28;19936;-63
2022/10/14 05:13:45;;;;;;;;;;;;;;;10.39;100.00;95199.53;5066821;28;19928;-63
2022/10/14 05:16:14;;;;;;;;;;;;;;;10.50;100.00;95201.38;5075021;28;20476;-63
2022/10/14 05:18:40;;;;;;;;;;;;;;;10.49;100.00;95194.56;5069942;28;19928;-64
2022/10/14 05:21:09;;;;;;;;;;;;;;;10.52;100.00;95196.75;5075257;28;19981;-65
2022/10/14 05:23:56;;;;;;;;;;;;;;;10.59;100.00;95203.66;5050896;28;19935;-65
2022/10/14 05:26:25;;;;;;;;;;;;;;;10.59;100.00;95203.66;5092055;28;20491;-65
2022/10/14 05:28:52;;;;;;;;;;;;;;;10.75;100.00;95200.47;5078107;28;19924;-64
2022/10/14 05:31:20;;;;;;;;;;;;;;;10.77;100.00;95200.22;5074251;28;20000;-65
2022/10/14 05:33:58;;;;;;;;;;;;;;;10.93;100.00;95204.00;5073302;28;20595;-64
2022/10/14 05:36:25;;;;;;;;;;;;;;;10.94;100.00;95205.59;5097512;28;19932;-64
2022/10/14 05:38:55;;;;;;;;;;;;;;;11.02;100.00;95205.25;5073577;28;19928;-63
2022/10/14 05:41:22;;;;;;;;;;;;;;;11.00;100.00;95207.28;5070835;28;19924;-64
2022/10/14 05:43:48;;;;;;;;;;;;;;;11.17;100.00;95210.84;5069982;28;19931;-64
2022/10/14 05:46:15;;;;;;;;;;;;;;;11.23;100.00;95220.34;5088878;28;20092;-64
2022/10/14 05:48:47;;;;;;;;;;;;;;;11.38;100.00;95216.53;5072351;28;20289;-64
2022/10/14 05:51:15;;;;;;;;;;;;;;;11.52;100.00;95220.50;5065699;28;19940;-65
2022/10/14 05:53:42;;;;;;;;;;;;;;;11.56;100.00;95229.47;5087574;28;19959;-64
2022/10/14 05:56:14;;;;;;;;;;;;;;;11.73;100.00;95224.34;5065240;28;19973;-64
2022/10/14 05:58:41;;;;;;;;;;;;;;;11.92;100.00;95230.28;5069917;28;20413;-64
2022/10/14 06:01:09;;;;;;;;;;;;;;;11.95;100.00;95231.63;5069664;28;19977;-65
2022/10/14 06:03:38;;;;;;;;;;;;;;;12.11;100.00;95235.34;5061134;28;19963;-64
2022/10/14 06:06:07;;;;;;;;;;;;;;;12.08;100.00;95241.03;5068219;28;19928;-64
2022/10/14 06:08:33;;;;;;;;;;;;;;;12.22;100.00;95242.34;5065747;28;19928;-65
2022/10/14 06:11:01;;;;;;;;;;;;;;;12.32;100.00;95239.97;5084318;28;19977;-64
2022/10/14 06:13:28;;;;;;;;;;;;;;;12.18;100.00;95242.03;5065468;28;19931;-64
2022/10/14 06:15:55;;;;;;;;;;;;;;;12.19;100.00;95237.59;5065092;28;19924;-65
2022/10/14 06:18:22;;;;;;;;;;;;;;;12.20;100.00;95244.41;5071839;28;20397;-64
2022/10/14 06:20:50;;;;;;;;;;;;;;;12.22;100.00;95244.97;5069775;28;19928;-64
2022/10/14 06:23:17;;;;;;;;;;;;;;;12.26;100.00;95248.69;5089847;28;19924;-64
2022/10/14 06:25:44;;;;;;;;;;;;;;;12.34;99.50;95245.75;5090310;28;19979;-65
2022/10/14 06:28:10;;;;;;;;;;;;;;;12.47;100.00;95246.50;5090816;28;20012;-65
2022/10/14 06:30:37;;;;;;;;;;;;;;;12.66;99.91;95245.31;5096099;28;20464;-68
2022/10/14 06:33:04;;;;;;;;;;;;;;;12.80;99.16;95238.78;5097000;28;19977;-69
2022/10/14 06:35:30;;;;;;;;;;;;;;;12.90;97.67;95242.59;5085022;28;20463;-69
2022/10/14 06:37:57;;;;;;;;;;;;;;;12.90;98.49;95243.38;5082765;28;20493;-69
2022/10/14 06:40:24;;;;;;;;;;;;;;;13.06;96.79;95252.28;5083135;28;20462;-69
2022/10/14 06:42:52;;;;;;;;;;;;;;;13.08;97.30;95252.81;5087924;28;19931;-69
2022/10/14 06:45:19;;;;;;;;;;;;;;;13.06;97.24;95254.91;5089463;28;20420;-69
2022/10/14 06:47:45;;;;;;;;;;;;;;;13.10;97.34;95253.38;5087829;28;19978;-69
2022/10/14 06:50:14;;;;;;;;;;;;;;;13.24;98.12;95253.09;5086779;28;20263;-69
2022/10/14 06:52:43;;;;;;;;;;;;;;;13.34;99.14;95254.09;5086574;28;19924;-69
2022/10/14 06:55:10;;;;;;;;;;;;;;;13.67;97.38;95256.94;5090859;28;20462;-69
2022/10/14 06:57:36;;;;;;;;;;;;;;;13.77;95.21;95257.06;5085473;28;19924;-68
2022/10/14 07:00:03;;;;;;;;;;;;;;;13.55;95.37;95249.94;5089164;28;20016;-68
2022/10/14 07:02:33;;;;;;;;;;;;;;;13.61;94.75;95248.19;5083558;28;19932;-69
2022/10/14 07:05:00;;;;;;;;;;;;;;;13.62;95.94;95249.00;5095810;28;19980;-69
2022/10/14 07:07:26;;;;;;;;;;;;;;;13.75;95.40;95254.69;5087800;28;20396;-69
2022/10/14 07:09:54;;;;;;;;;;;;;;;13.92;95.91;95253.88;5092142;28;19928;-63
2022/10/14 07:12:21;;;;;;;;;;;;;;;13.83;96.14;95248.25;5092201;28;19993;-64
2022/10/14 07:14:48;;;;;;;;;;;;;;;13.78;94.45;95245.56;5089959;28;19931;-67
2022/10/14 07:17:15;;;;;;;;;;;;;;;13.80;95.22;95245.34;5094882;28;20598;-64
2022/10/14 07:19:41;;;;;;;;;;;;;;;13.87;95.13;95251.97;5088713;28;19931;-64
2022/10/14 07:22:08;;;;;;;;;;;;;;;13.87;94.95;95251.97;5088441;28;19928;-63
2022/10/14 07:24:35;;;;;;;;;;;;;;;13.86;93.00;95245.13;5087862;28;19928;-63
2022/10/14 07:27:02;;;;;;;;;;;;;;;13.76;94.25;95247.63;5092101;28;20019;-63
2022/10/14 07:29:34;;;;;;;;;;;;;;;13.79;95.18;95244.53;5087495;28;20500;-64
2022/10/14 07:32:00;;;;;;;;;;;;;;;13.74;95.34;95252.31;5084771;28;19928;-64
2022/10/14 07:34:27;;;;;;;;;;;;;;;13.78;95.96;95248.19;5088687;28;20199;-65
2022/10/14 07:36:54;;;;;;;;;;;;;;;13.73;95.59;95246.28;5095576;28;20433;-65
2022/10/14 07:39:20;;;;;;;;;;;;;;;13.74;98.21;95247.09;5090817;28;19935;-64
2022/10/14 07:41:47;;;;;;;;;;;;;;;14.20;96.00;95229.34;5084337;28;19928;-64
2022/10/14 07:44:15;;;;;;;;;;;;;;;14.47;93.22;95233.84;5076403;28;19928;-65
2022/10/14 07:46:43;;;;;;;;;;;;;;;14.65;91.59;95236.19;5089299;28;19935;-66
2022/10/14 07:49:11;;;;;;;;;;;;;;;14.82;89.21;95232.66;5088451;28;20375;-64
2022/10/14 07:51:38;;;;;;;;;;;;;;;15.20;84.81;95241.44;5095082;28;20525;-62
2022/10/14 07:54:09;;;;;;;;;;;;;;;15.65;85.56;95237.56;5092235;28;19961;-63
2022/10/14 07:56:38;;;;;;;;;;;;;;;15.86;81.10;95234.06;5096368;28;20621;-63
2022/10/14 07:59:05;;;;;;;;;;;;;;;16.04;78.07;95239.91;5092029;28;19928;-68
2022/10/14 08:01:31;;;;;;;;;;;;;;;16.30;78.29;95235.59;5089246;28;19967;-67
2022/10/14 08:03:58;;;;;;;;;;;;;;;16.58;74.07;95238.81;5092391;28;20018;-66
2022/10/14 08:06:25;;;;;;;;;;;;;;;16.52;73.18;95240.66;5091822;28;19928;-66
2022/10/14 08:08:52;;;;;;;;;;;;;;;16.56;72.76;95238.31;5086423;28;20289;-66
2022/10/14 08:11:23;;;;;;;;;;;;;;;17.03;71.16;95244.50;5092805;28;20015;-66
2022/10/14 08:13:50;;;;;;;;;;;;;;;17.03;67.80;95247.91;5089205;28;19928;-66
2022/10/14 08:16:35;;;;;;;;;;;;;;;16.96;69.02;95242.91;5093721;28;19981;-64
2022/10/14 08:19:05;;;;;;;;;;;;;;;16.77;69.27;95247.03;5081562;28;19935;-66
2022/10/14 08:21:40;;;;;;;;;;;;;;;16.71;70.76;95238.34;5088691;28;19978;-65
2022/10/14 08:24:07;;;;;;;;;;;;;;;16.76;71.17;95250.72;5091422;28;19928;-64
2022/10/14 08:26:38;;;;;;;;;;;;;;;16.79;70.63;95244.94;5092040;28;20033;-63
2022/10/14 08:29:06;;;;;;;;;;;;;;;16.72;71.10;95244.41;5092650;28;19959;-63
2022/10/14 08:31:33;;;;;;;;;;;;;;;16.47;73.78;95243.25;5093734;28;19975;-65
2022/10/14 08:34:00;;;;;;;;;;;;;;;16.26;73.14;95247.66;5086680;28;20324;-70
2022/10/14 08:36:27;;;;;;;;;;;;;;;16.06;74.07;95243.06;5092728;28;20026;-64
2022/10/14 08:38:54;;;;;;;;;;;;;;;15.71;77.40;95241.81;5087558;28;19978;-69
2022/10/14 08:41:27;;;;;;;;;;;;;;;15.97;76.34;95249.88;5090817;28;19985;-68
2022/10/14 08:44:02;;;;;;;;;;;;;;;16.40;75.93;95237.44;5085267;28;19928;-68
2022/10/14 08:46:32;;;;;;;;;;;;;;;16.41;73.88;95244.31;5087863;28;20047;-70
2022/10/14 08:49:04;;;;;;;;;;;;;;;16.46;73.78;95236.44;5087517;28;19953;-68
2022/10/14 08:51:31;;;;;;;;;;;;;;;16.82;73.92;95233.91;5094105;28;20612;-68
2022/10/14 08:54:05;;;;;;;;;;;;;;;16.77;72.48;95236.53;5086980;28;19990;-65
2022/10/14 08:56:33;;;;;;;;;;;;;;;16.80;69.97;95238.66;5090574;28;20039;-66
2022/10/14 08:59:09;;;;;;;;;;;;;;;16.79;70.64;95244.94;5088922;28;19924;-67
2022/10/14 09:01:43;;;;;;;;;;;;;;;17.04;70.11;95246.88;5083886;28;20033;-66
2022/10/14 09:04:12;;;;;;;;;;;;;;;17.08;68.21;95247.91;5084540;28;19928;-67
2022/10/14 09:06:41;;;;;;;;;;;;;;;17.31;66.92;95241.34;5084585;28;20366;-67
2022/10/14 09:09:13;;;;;;;;;;;;;;;17.27;63.81;95240.31;5065246;28;19928;-66
2022/10/14 09:11:43;;;;;;;;;;;;;;;17.30;65.66;95245.03;5091217;28;20637;-67
2022/10/14 09:14:18;;;;;;;;;;;;;;;17.68;65.24;95237.66;5085850;28;20394;-67
2022/10/14 09:16:46;;;;;;;;;;;;;;;17.69;61.88;95241.88;5087390;28;19954;-67
2022/10/14 09:19:21;;;;;;;;;;;;;;;18.12;61.31;95239.69;5082220;28;19978;-67
2022/10/14 09:21:50;;;;;;;;;;;;;;;18.21;59.61;95233.88;5085067;28;19950;-67
2022/10/14 09:24:22;;;;;;;;;;;;;;;18.44;60.62;95241.19;5089256;28;19931;-67
2022/10/14 09:26:53;;;;;;;;;;;;;;;18.30;60.11;95245.44;5090618;28;19924;-64
2022/10/14 09:29:31;;;;;;;;;;;;;;;18.21;60.51;95236.53;5089331;28;20409;-63
2022/10/14 09:32:01;;;;;;;;;;;;;;;18.49;60.60;95233.25;5089746;28;19928;-65
2022/10/14 09:34:29;;;;;;;;;;;;;;;18.53;58.74;95229.00;5090114;28;19932;-65
2022/10/14 09:36:57;;;;;;;;;;;;;;;18.43;59.64;95238.81;5089465;28;19978;-65
2022/10/14 09:39:24;;;;;;;;;;;;;;;18.40;58.27;95234.88;5092146;28;19990;-65
2022/10/14 09:41:52;;;;;;;;;;;;;;;18.25;57.89;95232.28;5092315;28;19960;-65
2022/10/14 09:44:24;;;;;;;;;;;;;;;18.28;58.70;95229.13;5089017;28;19931;-65
2022/10/14 09:46:54;;;;;;;;;;;;;;;18.24;59.37;95230.69;5090021;28;19928;-65
2022/10/14 09:49:31;;;;;;;;;;;;;;;18.47;57.38;95230.06;5087022;28;20262;-65
2022/10/14 09:51:57;;;;;;;;;;;;;;;18.54;59.44;95220.00;5089318;28;19939;-66
2022/10/14 09:54:27;;;;;;;;;;;;;;;18.52;55.92;95226.63;5084199;28;20472;-65
2022/10/14 09:57:07;;;;;;;;;;;;;;;18.47;57.17;95230.06;5084471;28;20046;-65
2022/10/14 09:59:55;;;;;;;;;;;;;;;18.66;56.06;95221.56;5089497;28;19931;-65
2022/10/14 10:02:23;;;;;;;;;;;;;;;18.38;55.77;95236.19;5094428;28;19927;-65
2022/10/14 10:04:51;;;;;;;;;;;;;;;18.24;56.56;95231.50;5090586;28;20420;-65
2022/10/14 10:07:26;;;;;;;;;;;;;;;18.08;57.08;95229.97;5086358;28;19939;-65
2022/10/14 10:09:54;;;;;;;;;;;;;;;17.93;57.39;95230.78;5091443;28;19923;-65
2022/10/14 10:12:22;;;;;;;;;;;;;;;17.90;58.47;95226.06;5095846;28;19931;-65
2022/10/14 10:14:56;;;;;;;;;;;;;;;18.25;57.92;95232.28;5093797;28;20564;-65
2022/10/14 10:17:23;;;;;;;;;;;;;;;18.14;57.24;95221.75;5092033;28;19951;-65
2022/10/14 10:20:04;;;;;;;;;;;;;;;18.00;57.48;95225.25;5073436;28;19964;-65
2022/10/14 10:22:35;;;;;;;;;;;;;;;18.35;55.92;95226.97;5088725;28;20167;-64
2022/10/14 10:25:05;;;;;;;;;;;;;;;18.51;55.80;95225.84;5084733;28;19958;-65
2022/10/14 10:27:35;;;;;;;;;;;;;;;18.62;54.07;95212.59;5090069;28;19928;-68
2022/10/14 10:30:17;;;;;;;;;;;;;;;18.57;53.27;95215.28;5092148;28;19932;-67
2022/10/14 10:32:56;;;;;;;;;;;;;;;18.68;52.68;95208.88;5090533;28;20400;-66
2022/10/14 10:35:25;;;;;;;;;;;;;;;18.64;51.99;95210.50;5091410;28;19959;-65
2022/10/14 10:37:59;;;;;;;;;;;;;;;18.57;52.30;95204.72;5092198;28;20644;-68
2022/10/14 10:40:31;;;;;;;;;;;;;;;18.46;51.34;95202.13;5093588;28;19924;-69
2022/10/14 10:43:17;;;;;;;;;;;;;;;18.62;51.45;95194.94;5089932;28;19932;-68
2022/10/14 10:45:44;;;;;;;;;;;;;;;18.54;50.41;95198.13;5088942;28;19935;-68
2022/10/14 10:48:14;;;;;;;;;;;;;;;18.94;50.88;95190.28;5091104;28;19928;-66
2022/10/14 10:50:56;;;;;;;;;;;;;;;19.19;49.08;95182.16;5093769;28;19932;-65
2022/10/14 10:53:28;;;;;;;;;;;;;;;18.77;49.58;95183.50;5086635;28;20404;-65
2022/10/14 10:56:03;;;;;;;;;;;;;;;18.64;50.26;95186.75;5087833;28;19954;-63
2022/10/14 10:58:53;;;;;;;;;;;;;;;18.60;50.73;95181.25;5086839;28;19997;-70
2022/10/14 11:01:24;;;;;;;;;;;;;;;18.76;48.75;95183.75;5066121;28;19939;-65
2022/10/14 11:03:52;;;;;;;;;;;;;;;18.81;48.78;95187.19;5079587;28;19936;-65
2022/10/14 11:12:01;;;;;;;;;;;;;;;18.58;49.71;95187.81;5089737;28;20320;-65
2022/10/14 11:12:14;;;;;;;;;;;;;;;18.67;48.12;95178.28;5086358;28;20301;-65
2022/10/14 11:14:45;;;;;;;;;;;;;;;18.38;47.70;95168.41;5088100;28;19993;-65
2022/10/14 11:17:33;;;;;;;;;;;;;;;18.45;48.21;95168.91;5086713;28;20374;-65
2022/10/14 11:20:06;;;;;;;;;;;;;;;18.60;48.26;95167.25;5091266;28;19924;-65
2022/10/14 11:22:49;;;;;;;;;;;;;;;18.81;46.83;95166.06;5084763;28;20686;-65
2022/10/14 11:25:37;;;;;;;;;;;;;;;18.83;45.67;95157.88;5087998;28;19934;-65
2022/10/14 11:28:09;;;;;;;;;;;;;;;18.60;46.33;95161.97;5070649;28;20011;-67
2022/10/14 11:30:42;;;;;;;;;;;;;;;18.78;45.57;95165.81;5086122;28;20521;-69
2022/10/14 11:33:11;;;;;;;;;;;;;;;18.90;45.73;95150.44;5088969;28;20012;-69
2022/10/14 11:35:41;;;;;;;;;;;;;;;19.05;44.37;95155.63;5085201;28;20365;-66
2022/10/14 11:38:14;;;;;;;;;;;;;;;18.94;45.06;95148.06;5084954;28;19932;-65
2022/10/14 11:40:49;;;;;;;;;;;;;;;19.43;44.94;95144.47;5091548;28;19932;-65
2022/10/14 11:43:31;;;;;;;;;;;;;;;19.21;44.24;95137.81;5088183;28;20408;-65
2022/10/14 11:46:09;;;;;;;;;;;;;;;18.95;44.88;95144.34;5084557;28;19927;-65
2022/10/14 11:48:55;;;;;;;;;;;;;;;19.21;44.24;95139.66;5083700;28;19931;-65
2022/10/14 11:51:21;;;;;;;;;;;;;;;19.59;43.33;95137.97;5086254;28;19935;-69
2022/10/14 11:54:00;;;;;;;;;;;;;;;19.55;42.63;95131.66;5089541;28;20025;-68
2022/10/14 11:56:28;;;;;;;;;;;;;;;19.56;43.53;95132.47;5086484;28;20477;-68
2022/10/14 11:59:19;;;;;;;;;;;;;;;19.77;41.98;95128.56;5089845;28;19935;-69
2022/10/14 12:01:47;;;;;;;;;;;;;;;19.80;43.14;95135.91;5090310;28;19928;-69
2022/10/14 12:04:23;;;;;;;;;;;;;;;19.66;42.21;95129.69;5087450;28;20026;-69
2022/10/14 12:06:54;;;;;;;;;;;;;;;19.63;43.44;95125.78;5086117;28;20027;-68
2022/10/14 12:09:25;;;;;;;;;;;;;;;19.50;42.73;95134.38;5083111;28;19924;-68
2022/10/14 12:11:55;;;;;;;;;;;;;;;19.80;43.37;95124.56;5087132;28;19930;-68
2022/10/14 12:14:22;;;;;;;;;;;;;;;19.71;43.33;95123.59;5091222;28;19928;-69
2022/10/14 12:16:51;;;;;;;;;;;;;;;19.68;43.97;95120.44;5091339;28;20363;-69
2022/10/14 12:19:23;;;;;;;;;;;;;;;19.92;45.13;95118.88;5089625;28;19967;-69
2022/10/14 12:21:52;;;;;;;;;;;;;;;20.42;44.19;95116.66;5077793;28;20507;-69
2022/10/14 12:24:22;;;;;;;;;;;;;;;20.78;43.02;95118.81;5097135;28;19935;-69
2022/10/14 12:26:51;;;;;;;;;;;;;;;20.84;43.72;95116.88;5100322;28;19935;-70
2022/10/14 12:29:19;;;;;;;;;;;;;;;21.02;42.43;95125.88;5095940;28;19966;-70
2022/10/14 12:31:50;;;;;;;;;;;;;;;21.16;43.20;95124.81;5094510;28;20469;-71
2022/10/14 12:34:25;;;;;;;;;;;;;;;21.12;43.23;95129.13;5095726;28;19963;-71
2022/10/14 12:36:52;;;;;;;;;;;;;;;21.30;42.99;95129.34;5092819;28;20293;-72
2022/10/14 12:39:18;;;;;;;;;;;;;;;21.24;39.65;95119.94;5094173;28;20376;-72
2022/10/14 12:41:54;;;;;;;;;;;;;;;21.40;40.45;95129.19;5093429;28;20294;-71
2022/10/14 12:44:21;;;;;;;;;;;;;;;21.13;40.06;95133.34;5095871;28;19932;-71
2022/10/14 12:46:50;;;;;;;;;;;;;;;21.23;40.86;95128.94;5089670;28;19959;-69
2022/10/14 12:49:29;;;;;;;;;;;;;;;20.65;40.38;95130.91;5092620;28;20056;-70
2022/10/14 12:51:56;;;;;;;;;;;;;;;20.37;41.31;95125.44;5074242;28;20023;-69
2022/10/14 12:54:24;;;;;;;;;;;;;;;20.07;40.68;95125.84;5086039;28;20526;-70
2022/10/14 12:57:05;;;;;;;;;;;;;;;19.86;41.05;95128.72;5094114;28;19928;-69
2022/10/14 12:59:36;;;;;;;;;;;;;;;19.89;41.18;95125.50;5096029;28;19934;-68
2022/10/14 13:02:17;;;;;;;;;;;;;;;19.45;41.46;95115.94;5094270;28;19928;-68
2022/10/14 13:04:49;;;;;;;;;;;;;;;19.17;42.96;95120.94;5090419;28;19924;-71